createdAt,value
2022-10-29T00:01:00.378Z,30.88
2022-10-29T00:03:30.739Z,31.77
2022-10-29T00:06:16.857Z,31.73
2022-10-29T00:11:34.306Z,31.05
2022-10-29T00:16:48.347Z,32.10
2022-10-29T00:27:35.518Z,31.00
2022-10-29T00:30:05.622Z,31.10
2022-10-29T00:32:34.362Z,30.98
2022-10-29T00:35:02.313Z,29.15
2022-10-29T00:37:29.689Z,30.08
2022-10-29T00:39:56.784Z,29.90
2022-10-29T00:42:27.647Z,29.40
2022-10-29T00:45:02.793Z,28.83
2022-10-29T00:47:42.354Z,29.02
2022-10-29T00:50:16.362Z,29.20
2022-10-29T00:52:49.760Z,30.00
2022-10-29T00:55:20.756Z,29.80
2022-10-29T00:57:54.655Z,29.27
2022-10-29T01:00:22.504Z,29.02
2022-10-29T01:02:57.136Z,29.65
2022-10-29T01:05:26.128Z,29.27
2022-10-29T01:07:55.712Z,28.30
2022-10-29T01:10:36.102Z,28.35
2022-10-29T01:13:44.458Z,29.15
2022-10-29T01:16:33.040Z,28.30
2022-10-29T01:19:32.316Z,28.40
2022-10-29T01:22:16.621Z,27.27
2022-10-29T01:25:12.820Z,27.17
2022-10-29T01:27:59.744Z,27.15
2022-10-29T01:30:32.386Z,27.80
2022-10-29T01:33:30.105Z,27.65
2022-10-29T01:36:01.813Z,25.23
2022-10-29T01:39:13.971Z,24.95
2022-10-29T01:41:52.889Z,24.02
2022-10-29T01:44:44.515Z,25.25
2022-10-29T01:47:22.136Z,24.67
2022-10-29T01:50:02.812Z,24.52
2022-10-29T01:52:38.052Z,23.58
2022-10-29T01:55:06.155Z,23.50
2022-10-29T01:57:45.149Z,23.45
2022-10-29T02:00:23.986Z,23.17
2022-10-29T02:03:30.293Z,23.42
2022-10-29T02:06:13.772Z,22.58
2022-10-29T02:09:09.632Z,22.88
2022-10-29T02:11:55.667Z,23.90
2022-10-29T02:14:50.554Z,22.70
2022-10-29T02:17:20.637Z,23.63
2022-10-29T02:19:50.303Z,23.75
2022-10-29T02:22:24.099Z,22.25
2022-10-29T02:24:53.667Z,23.48
2022-10-29T02:27:22.876Z,23.45
2022-10-29T02:29:49.579Z,24.33
2022-10-29T02:32:22.321Z,24.48
2022-10-29T02:34:55.008Z,23.98
2022-10-29T02:37:24.896Z,22.38
2022-10-29T02:39:51.637Z,23.05
2022-10-29T02:42:18.345Z,23.30
2022-10-29T02:44:45.152Z,23.05
2022-10-29T02:47:11.841Z,23.92
2022-10-29T02:49:43.082Z,23.08
2022-10-29T02:52:22.105Z,22.73
2022-10-29T02:54:49.093Z,23.70
2022-10-29T02:57:18.755Z,22.83
2022-10-29T02:59:55.632Z,23.38
2022-10-29T03:02:26.668Z,23.13
2022-10-29T03:04:55.263Z,23.88
2022-10-29T03:07:21.968Z,23.15
2022-10-29T03:09:49.628Z,25.02
2022-10-29T03:12:16.567Z,24.30
2022-10-29T03:14:43.245Z,25.15
2022-10-29T03:17:10.713Z,23.15
2022-10-29T03:19:48.845Z,25.38
2022-10-29T03:22:15.930Z,25.58
2022-10-29T03:24:42.796Z,24.17
2022-10-29T03:27:20.895Z,24.92
2022-10-29T03:29:47.991Z,23.77
2022-10-29T03:32:17.603Z,23.02
2022-10-29T03:34:47.884Z,22.17
2022-10-29T03:37:25.552Z,22.50
2022-10-29T03:39:52.848Z,22.35
2022-10-29T03:42:22.631Z,23.40
2022-10-29T03:45:01.131Z,22.42
2022-10-29T03:47:35.467Z,21.85
2022-10-29T03:50:05.434Z,22.23
2022-10-29T03:52:32.409Z,20.05
2022-10-29T03:55:02.134Z,21.08
2022-10-29T03:57:28.869Z,21.38
2022-10-29T04:00:02.781Z,20.33
2022-10-29T04:02:30.237Z,17.40
2022-10-29T04:04:59.734Z,19.05
2022-10-29T04:07:27.846Z,19.02
2022-10-29T04:09:54.574Z,19.13
2022-10-29T04:12:21.322Z,19.13
2022-10-29T04:14:48.550Z,19.23
2022-10-29T04:20:10.039Z,18.83
2022-10-29T04:31:15.571Z,19.05
2022-10-29T04:33:42.282Z,18.92
2022-10-29T04:36:10.674Z,18.88
2022-10-29T04:38:46.540Z,18.83
2022-10-29T04:41:18.159Z,19.52
2022-10-29T04:46:24.049Z,18.70
2022-10-29T04:48:51.349Z,18.08
2022-10-29T04:51:23.154Z,19.08
2022-10-29T04:54:09.429Z,18.83
2022-10-29T04:56:38.720Z,18.20
2022-10-29T05:01:51.185Z,18.45
2022-10-29T05:04:26.244Z,17.92
2022-10-29T05:06:53.468Z,18.50
2022-10-29T05:09:20.663Z,18.75
2022-10-29T05:11:47.397Z,18.27
2022-10-29T05:14:13.928Z,17.88
2022-10-29T05:20:27.999Z,17.30
2022-10-29T05:23:06.450Z,16.40
2022-10-29T05:25:35.380Z,16.98
2022-10-29T05:28:08.533Z,17.20
2022-10-29T05:30:38.357Z,16.45
2022-10-29T05:33:14.305Z,16.45
2022-10-29T05:35:41.475Z,14.98
2022-10-29T05:38:12.364Z,14.95
2022-10-29T05:40:39.726Z,14.05
2022-10-29T05:43:21.727Z,14.45
2022-10-29T05:46:19.864Z,14.73
2022-10-29T05:48:46.591Z,13.52
2022-10-29T05:51:13.346Z,12.30
2022-10-29T05:53:39.996Z,13.73
2022-10-29T05:56:07.342Z,13.45
2022-10-29T05:59:02.286Z,13.98
2022-10-29T06:01:29.055Z,13.55
2022-10-29T06:03:55.884Z,13.90
2022-10-29T06:06:22.637Z,13.25
2022-10-29T06:08:49.347Z,14.70
2022-10-29T06:11:16.182Z,14.48
2022-10-29T06:13:42.688Z,14.35
2022-10-29T06:16:09.404Z,13.85
2022-10-29T06:18:37.797Z,14.50
2022-10-29T06:21:05.343Z,13.63
2022-10-29T06:23:32.188Z,14.40
2022-10-29T06:26:04.130Z,14.90
2022-10-29T06:28:34.689Z,14.48
2022-10-29T06:31:01.762Z,15.20
2022-10-29T06:33:28.600Z,14.45
2022-10-29T06:36:00.754Z,13.85
2022-10-29T06:38:27.651Z,13.40
2022-10-29T06:40:54.395Z,13.80
2022-10-29T06:43:23.528Z,13.50
2022-10-29T06:45:54.688Z,14.18
2022-10-29T06:48:22.716Z,14.57
2022-10-29T06:50:51.560Z,13.10
2022-10-29T06:53:49.423Z,13.10
2022-10-29T06:56:16.151Z,11.75
2022-10-29T06:58:45.942Z,12.52
2022-10-29T07:01:12.734Z,13.30
2022-10-29T07:03:39.555Z,13.25
2022-10-29T07:06:06.463Z,13.40
2022-10-29T07:08:33.579Z,13.43
2022-10-29T07:11:02.900Z,13.27
2022-10-29T07:13:46.303Z,13.23
2022-10-29T07:16:29.939Z,13.23
2022-10-29T07:18:58.195Z,13.55
2022-10-29T07:21:28.038Z,13.45
2022-10-29T07:23:56.589Z,13.82
2022-10-29T07:27:09.568Z,13.85
2022-10-29T07:29:39.569Z,12.95
2022-10-29T07:32:06.273Z,13.18
2022-10-29T07:34:32.904Z,14.25
2022-10-29T07:39:44.379Z,14.32
2022-10-29T07:42:17.220Z,10.43
2022-10-29T07:44:47.221Z,15.15
2022-10-29T07:47:13.917Z,14.25
2022-10-29T07:49:40.542Z,15.52
2022-10-29T07:52:19.375Z,9.52
2022-10-29T07:54:46.134Z,13.00
2022-10-29T07:57:25.616Z,12.63
2022-10-29T08:00:17.095Z,14.60
2022-10-29T08:02:43.780Z,10.40
2022-10-29T08:05:10.519Z,18.55
2022-10-29T08:07:39.927Z,19.48
2022-10-29T08:10:07.268Z,14.88
2022-10-29T08:12:34.164Z,11.10
2022-10-29T08:15:16.692Z,14.80
2022-10-29T08:20:22.212Z,15.48
2022-10-29T08:22:49.088Z,15.25
2022-10-29T08:25:16.204Z,15.18
2022-10-29T08:27:43.408Z,15.02
2022-10-29T08:30:40.990Z,20.10
2022-10-29T08:36:14.963Z,17.67
2022-10-29T08:38:41.822Z,12.63
2022-10-29T08:41:34.040Z,11.40
2022-10-29T08:44:28.764Z,10.50
2022-10-29T08:47:21.332Z,14.32
2022-10-29T08:52:28.575Z,11.48
2022-10-29T08:55:15.581Z,18.75
2022-10-29T08:57:46.017Z,12.25
2022-10-29T09:00:21.918Z,12.40
2022-10-29T09:02:58.084Z,12.95
2022-10-29T09:06:05.459Z,12.57
2022-10-29T09:08:57.226Z,11.93
2022-10-29T09:11:39.228Z,13.83
2022-10-29T09:14:46.839Z,13.50
2022-10-29T09:17:16.726Z,17.77
2022-10-29T09:19:52.367Z,13.48
2022-10-29T09:22:50.780Z,16.67
2022-10-29T09:25:26.566Z,18.77
2022-10-29T09:28:25.898Z,17.42
2022-10-29T09:31:19.435Z,15.73
2022-10-29T09:33:57.816Z,13.02
2022-10-29T09:36:32.639Z,20.27
2022-10-29T09:39:34.343Z,19.73
2022-10-29T09:42:05.427Z,13.68
2022-10-29T09:44:58.653Z,14.20
2022-10-29T09:47:47.666Z,17.13
2022-10-29T09:50:29.959Z,12.70
2022-10-29T09:52:56.851Z,14.68
2022-10-29T09:55:28.882Z,20.38
2022-10-29T09:58:01.140Z,22.10
2022-10-29T10:00:31.751Z,17.83
2022-10-29T10:03:12.520Z,14.02
2022-10-29T10:06:03.716Z,19.25
2022-10-29T10:08:32.174Z,18.70
2022-10-29T10:11:05.454Z,16.58
2022-10-29T10:13:41.923Z,14.13
2022-10-29T10:16:11.714Z,18.05
2022-10-29T10:21:24.617Z,17.98
2022-10-29T10:23:54.492Z,19.30
2022-10-29T10:26:46.631Z,16.83
2022-10-29T10:29:31.891Z,20.80
2022-10-29T10:32:07.356Z,17.60
2022-10-29T10:34:35.860Z,19.02
2022-10-29T10:37:02.591Z,17.85
2022-10-29T10:39:41.270Z,19.30
2022-10-29T10:42:23.371Z,20.08
2022-10-29T10:44:55.691Z,15.00
2022-10-29T10:47:27.538Z,15.00
2022-10-29T10:50:13.727Z,20.02
2022-10-29T10:52:41.382Z,20.52
2022-10-29T10:55:30.651Z,16.90
2022-10-29T10:58:25.775Z,17.23
2022-10-29T11:01:16.492Z,14.85
2022-10-29T11:03:47.123Z,17.38
2022-10-29T11:06:45.006Z,21.52
2022-10-29T11:09:55.812Z,19.58
2022-10-29T11:12:37.772Z,16.45
2022-10-29T11:15:15.031Z,20.33
2022-10-29T11:18:00.902Z,19.20
2022-10-29T11:20:36.543Z,19.60
2022-10-29T11:23:38.762Z,13.52
2022-10-29T11:26:22.506Z,12.57
2022-10-29T11:29:15.424Z,11.70
2022-10-29T11:31:55.697Z,20.55
2022-10-29T11:34:30.362Z,18.73
2022-10-29T11:37:05.445Z,16.60
2022-10-29T11:39:43.631Z,16.70
2022-10-29T11:42:10.424Z,14.52
2022-10-29T11:44:39.289Z,18.58
2022-10-29T11:47:08.940Z,15.02
2022-10-29T11:49:44.727Z,19.02
2022-10-29T11:52:35.499Z,14.68
2022-10-29T11:55:05.679Z,19.17
2022-10-29T11:57:44.203Z,15.57
2022-10-29T12:00:23.341Z,17.15
2022-10-29T12:03:59.180Z,13.27
2022-10-29T12:06:38.337Z,13.38
2022-10-29T12:09:31.027Z,14.32
2022-10-29T12:12:27.527Z,18.45
2022-10-29T12:15:12.158Z,14.80
2022-10-29T12:17:45.819Z,21.05
2022-10-29T12:20:31.169Z,19.30
2022-10-29T12:23:30.405Z,17.98
2022-10-29T12:26:07.672Z,17.20
2022-10-29T12:29:08.834Z,20.23
2022-10-29T12:32:08.629Z,14.73
2022-10-29T12:34:48.599Z,20.17
2022-10-29T12:38:01.306Z,19.73
2022-10-29T12:40:39.420Z,17.85
2022-10-29T12:43:13.923Z,14.70
2022-10-29T12:46:06.525Z,18.10
2022-10-29T12:48:53.518Z,19.05
2022-10-29T12:51:40.602Z,15.50
2022-10-29T12:54:39.635Z,18.52
2022-10-29T12:57:36.357Z,14.63
2022-10-29T13:00:27.888Z,13.43
2022-10-29T13:02:56.319Z,17.13
2022-10-29T13:05:26.349Z,16.10
2022-10-29T13:07:59.821Z,17.65
2022-10-29T13:10:33.020Z,17.27
2022-10-29T13:12:59.868Z,14.10
2022-10-29T13:15:47.633Z,17.92
2022-10-29T13:18:52.196Z,17.17
2022-10-29T13:21:56.686Z,15.43
2022-10-29T13:24:27.761Z,14.73
2022-10-29T13:26:55.882Z,14.05
2022-10-29T13:30:11.295Z,9.90
2022-10-29T13:32:41.713Z,10.45
2022-10-29T13:35:21.440Z,10.20
2022-10-29T13:38:12.768Z,10.38
2022-10-29T13:40:45.959Z,14.75
2022-10-29T13:43:19.162Z,11.25
2022-10-29T13:46:03.220Z,14.13
2022-10-29T13:48:37.508Z,13.02
2022-10-29T13:51:11.482Z,13.20
2022-10-29T13:53:50.256Z,10.73
2022-10-29T13:56:36.109Z,10.80
2022-10-29T13:59:11.297Z,11.20
2022-10-29T14:01:38.526Z,8.25
2022-10-29T14:04:25.338Z,9.05
2022-10-29T14:06:56.337Z,8.70
2022-10-29T14:09:55.917Z,8.05
2022-10-29T14:12:30.662Z,10.05
2022-10-29T14:15:12.742Z,10.43
2022-10-29T14:17:42.327Z,9.07
2022-10-29T14:20:21.788Z,7.85
2022-10-29T14:22:50.221Z,11.75
2022-10-29T14:25:32.957Z,7.57
2022-10-29T14:28:16.147Z,9.95
2022-10-29T14:30:58.980Z,7.35
2022-10-29T14:33:28.514Z,10.45
2022-10-29T14:36:15.188Z,6.95
2022-10-29T14:39:06.633Z,7.18
2022-10-29T14:41:53.625Z,8.40
2022-10-29T14:44:38.464Z,8.23
2022-10-29T14:47:13.271Z,8.73
2022-10-29T14:50:47.248Z,9.55
2022-10-29T14:56:23.289Z,8.70
2022-10-29T15:01:57.033Z,8.85
2022-10-29T15:31:53.810Z,6.75
2022-10-29T15:34:46.208Z,6.88
2022-10-29T15:43:33.714Z,5.55
2022-10-29T15:46:34.212Z,6.22
2022-10-29T15:49:05.750Z,5.15
2022-10-29T15:51:44.760Z,6.97
2022-10-29T15:54:18.370Z,6.03
2022-10-29T15:56:46.895Z,5.88
2022-10-29T15:59:20.584Z,7.75
2022-10-29T16:01:48.524Z,5.35
2022-10-29T16:04:20.092Z,6.55
2022-10-29T16:06:49.598Z,5.30
2022-10-29T16:09:19.762Z,5.88
2022-10-29T16:11:46.604Z,8.45
2022-10-29T16:14:16.204Z,6.50
2022-10-29T16:16:48.014Z,8.77
2022-10-29T16:19:15.951Z,8.80
2022-10-29T16:21:43.040Z,7.82
2022-10-29T16:24:14.808Z,7.10
2022-10-29T16:26:44.291Z,7.90
2022-10-29T16:29:16.157Z,8.02
2022-10-29T16:31:47.392Z,7.53
2022-10-29T16:34:27.081Z,7.65
2022-10-29T16:37:07.558Z,7.18
2022-10-29T16:39:59.720Z,6.78
2022-10-29T16:42:44.613Z,13.10
2022-10-29T16:45:17.559Z,8.57
2022-10-29T16:47:45.957Z,8.27
2022-10-29T16:50:17.993Z,8.30
2022-10-29T16:52:44.734Z,7.97
2022-10-29T16:55:17.583Z,9.07
2022-10-29T16:57:44.548Z,9.55
2022-10-29T17:02:56.513Z,9.70
2022-10-29T17:05:33.898Z,9.15
2022-10-29T17:08:14.712Z,8.70
2022-10-29T17:10:53.608Z,9.27
2022-10-29T17:13:20.489Z,9.50
2022-10-29T17:15:51.667Z,9.68
2022-10-29T17:18:18.318Z,9.25
2022-10-29T17:21:01.258Z,9.05
2022-10-29T17:23:28.881Z,9.65
2022-10-29T17:25:57.662Z,9.57
2022-10-29T17:28:28.750Z,9.15
2022-10-29T17:30:56.892Z,10.25
2022-10-29T17:33:23.644Z,10.38
2022-10-29T17:35:53.510Z,9.55
2022-10-29T17:38:24.203Z,9.15
2022-10-29T17:40:53.075Z,9.65
2022-10-29T17:43:28.634Z,9.90
2022-10-29T17:45:55.369Z,10.20
2022-10-29T17:48:24.974Z,9.52
2022-10-29T17:51:00.427Z,10.18
2022-10-29T17:53:28.550Z,9.57
2022-10-29T17:55:59.644Z,9.43
2022-10-29T17:58:29.097Z,10.18
2022-10-29T18:01:02.604Z,10.13
2022-10-29T18:03:30.181Z,8.95
2022-10-29T18:06:05.512Z,9.50
2022-10-29T18:08:33.055Z,9.00
2022-10-29T18:11:11.839Z,8.90
2022-10-29T18:13:44.095Z,9.48
2022-10-29T18:18:54.361Z,18.13
2022-10-29T18:21:27.632Z,10.90
2022-10-29T18:23:59.658Z,11.60
2022-10-29T18:26:36.020Z,10.40
2022-10-29T18:29:08.434Z,9.98
2022-10-29T18:31:38.120Z,9.63
2022-10-29T18:34:08.345Z,10.07
2022-10-29T18:36:37.501Z,10.32
2022-10-29T18:39:05.682Z,10.43
2022-10-29T18:41:39.692Z,9.80
2022-10-29T18:44:06.920Z,9.38
2022-10-29T18:46:38.417Z,9.57
2022-10-29T18:49:05.286Z,9.07
2022-10-29T18:51:33.014Z,10.57
2022-10-29T18:54:04.687Z,8.85
2022-10-29T18:56:40.485Z,9.95
2022-10-29T18:59:18.191Z,9.77
2022-10-29T19:01:46.211Z,10.45
2022-10-29T19:04:19.431Z,9.80
2022-10-29T19:06:49.649Z,9.60
2022-10-29T19:09:19.854Z,9.63
2022-10-29T19:11:59.376Z,9.95
2022-10-29T19:14:26.745Z,9.68
2022-10-29T19:16:56.522Z,9.90
2022-10-29T19:19:24.088Z,10.48
2022-10-29T19:21:50.967Z,9.70
2022-10-29T19:24:21.161Z,10.70
2022-10-29T19:26:47.959Z,10.10
2022-10-29T19:29:14.859Z,10.43
2022-10-29T19:31:50.856Z,10.43
2022-10-29T19:34:34.873Z,10.70
2022-10-29T19:37:02.155Z,10.52
2022-10-29T19:39:29.137Z,10.10
2022-10-29T19:41:58.706Z,10.73
2022-10-29T19:44:27.839Z,10.27
2022-10-29T19:47:01.965Z,10.32
2022-10-29T19:49:37.303Z,10.88
2022-10-29T19:52:06.962Z,11.60
2022-10-29T19:54:35.800Z,10.75
2022-10-29T19:57:05.841Z,11.10
2022-10-29T19:59:32.700Z,11.23
2022-10-29T20:02:01.568Z,8.70
2022-10-29T20:04:28.514Z,11.52
2022-10-29T20:06:56.611Z,10.90
2022-10-29T20:09:28.877Z,11.85
2022-10-29T20:14:28.874Z,12.40
2022-10-29T20:16:58.818Z,12.27
2022-10-29T20:19:38.932Z,14.73
2022-10-29T20:22:08.517Z,12.55
2022-10-29T20:24:38.297Z,12.63
2022-10-29T20:27:05.497Z,11.88
2022-10-29T20:29:33.484Z,12.32
2022-10-29T20:32:04.103Z,13.25
2022-10-29T20:34:33.955Z,12.60
2022-10-29T20:37:03.832Z,13.23
2022-10-29T20:39:33.423Z,12.90
2022-10-29T20:42:01.849Z,13.27
2022-10-29T20:44:31.664Z,12.82
2022-10-29T20:47:08.854Z,12.93
2022-10-29T20:49:36.907Z,13.43
2022-10-29T20:52:13.102Z,14.27
2022-10-29T20:54:48.996Z,13.07
2022-10-29T20:57:18.717Z,13.88
2022-10-29T20:59:46.151Z,13.20
2022-10-29T21:02:13.120Z,12.80
2022-10-29T21:04:39.888Z,13.43
2022-10-29T21:07:07.846Z,13.18
2022-10-29T21:09:34.969Z,12.95
2022-10-29T21:12:01.976Z,13.35
2022-10-29T21:14:29.766Z,12.98
2022-10-29T21:16:56.523Z,14.95
2022-10-29T21:19:32.376Z,10.80
2022-10-29T21:22:02.348Z,14.50
2022-10-29T21:24:29.315Z,11.77
2022-10-29T21:26:58.784Z,11.95
2022-10-29T21:29:57.138Z,14.43
2022-10-29T21:32:28.029Z,13.60
2022-10-29T21:35:03.909Z,14.50
2022-10-29T21:37:34.804Z,14.77
2022-10-29T21:40:10.679Z,13.63
2022-10-29T21:42:47.550Z,15.27
2022-10-29T21:45:20.305Z,14.30
2022-10-29T21:48:18.061Z,15.23
2022-10-29T21:51:10.113Z,14.90
2022-10-29T21:53:51.764Z,15.80
2022-10-29T21:56:28.991Z,15.07
2022-10-29T21:59:01.455Z,13.40
2022-10-29T22:01:44.840Z,14.50
2022-10-29T22:04:20.377Z,13.68
2022-10-29T22:06:47.162Z,14.40
2022-10-29T22:09:22.465Z,14.38
2022-10-29T22:11:49.229Z,13.57
2022-10-29T22:14:19.134Z,14.10
2022-10-29T22:16:52.601Z,13.35
2022-10-29T22:19:36.895Z,13.85
2022-10-29T22:22:08.709Z,13.98
2022-10-29T22:24:41.035Z,12.82
2022-10-29T22:27:19.022Z,13.85
2022-10-29T22:29:57.268Z,13.93
2022-10-29T22:35:07.116Z,13.30
2022-10-29T22:37:36.748Z,13.30
2022-10-29T22:40:03.896Z,13.43
2022-10-29T22:42:30.516Z,14.00
2022-10-29T22:44:57.298Z,13.35
2022-10-29T22:47:26.219Z,13.27
2022-10-29T22:49:58.541Z,13.15
2022-10-29T22:54:57.830Z,12.63
2022-10-29T22:57:33.512Z,12.85
2022-10-29T23:00:00.280Z,13.23
2022-10-29T23:02:35.798Z,12.93
2022-10-29T23:05:03.900Z,12.57
2022-10-29T23:10:02.733Z,12.38
2022-10-29T23:12:31.707Z,12.15
2022-10-29T23:15:07.040Z,12.27
2022-10-29T23:17:37.859Z,12.85
2022-10-29T23:20:04.950Z,12.00
2022-10-29T23:22:34.445Z,11.27
2022-10-29T23:25:01.702Z,12.05
2022-10-29T23:27:29.936Z,11.70
2022-10-29T23:29:58.120Z,11.68
2022-10-29T23:32:24.912Z,11.38
2022-10-29T23:34:59.286Z,11.30
2022-10-29T23:37:28.905Z,11.02
2022-10-29T23:39:56.714Z,11.55
2022-10-29T23:42:26.427Z,11.52
2022-10-29T23:44:53.487Z,11.85
2022-10-29T23:47:23.659Z,11.65
2022-10-29T23:49:52.916Z,12.02
2022-10-29T23:52:37.258Z,11.38
2022-10-29T23:55:05.221Z,11.48
2022-10-29T23:57:35.898Z,11.43
